sensor_id;sensor_type;location;lat;lon;timestamp;temperature;humidity
25504;DHT22;13410;52.114;5.718;2023-07-20T00:00:39;21.40;99.90
25504;DHT22;13410;52.114;5.718;2023-07-20T00:03:12;21.20;99.90
25504;DHT22;13410;52.114;5.718;2023-07-20T00:05:44;21.00;99.90
25504;DHT22;13410;52.114;5.718;2023-07-20T00:08:10;20.90;99.90
25504;DHT22;13410;52.114;5.718;2023-07-20T00:10:35;21.20;99.90
25504;DHT22;13410;52.114;5.718;2023-07-20T00:13:01;21.00;99.90
25504;DHT22;13410;52.114;5.718;2023-07-20T00:15:26;21.10;99.90
25504;DHT22;13410;52.114;5.718;2023-07-20T00:17:52;21.00;99.90
25504;DHT22;13410;52.114;5.718;2023-07-20T00:20:18;21.40;99.90
25504;DHT22;13410;52.114;5.718;2023-07-20T00:22:43;21.50;99.90
25504;DHT22;13410;52.114;5.718;2023-07-20T00:25:09;21.40;99.90
25504;DHT22;13410;52.114;5.718;2023-07-20T00:27:37;21.60;99.90
25504;DHT22;13410;52.114;5.718;2023-07-20T00:30:03;21.70;99.90
25504;DHT22;13410;52.114;5.718;2023-07-20T00:32:29;22.00;99.90
25504;DHT22;13410;52.114;5.718;2023-07-20T00:34:55;22.20;99.90
25504;DHT22;13410;52.114;5.718;2023-07-20T00:37:20;22.20;99.90
25504;DHT22;13410;52.114;5.718;2023-07-20T00:39:46;22.20;99.90
25504;DHT22;13410;52.114;5.718;2023-07-20T00:42:11;22.20;99.90
25504;DHT22;13410;52.114;5.718;2023-07-20T00:44:37;22.20;99.90
25504;DHT22;13410;52.114;5.718;2023-07-20T00:47:03;22.30;99.90
25504;DHT22;13410;52.114;5.718;2023-07-20T00:49:29;22.10;99.90
25504;DHT22;13410;52.114;5.718;2023-07-20T00:51:55;22.10;99.90
25504;DHT22;13410;52.114;5.718;2023-07-20T00:54:20;22.10;99.90
25504;DHT22;13410;52.114;5.718;2023-07-20T00:56:46;22.30;99.90
25504;DHT22;13410;52.114;5.718;2023-07-20T00:59:13;22.10;99.90
25504;DHT22;13410;52.114;5.718;2023-07-20T01:01:38;21.80;99.90
25504;DHT22;13410;52.114;5.718;2023-07-20T01:04:04;22.10;99.90
25504;DHT22;13410;52.114;5.718;2023-07-20T01:06:39;22.10;99.90
25504;DHT22;13410;52.114;5.718;2023-07-20T01:09:14;21.90;99.90
25504;DHT22;13410;52.114;5.718;2023-07-20T01:11:59;21.50;99.90
25504;DHT22;13410;52.114;5.718;2023-07-20T01:14:25;21.50;99.90
25504;DHT22;13410;52.114;5.718;2023-07-20T01:16:51;21.70;99.90
25504;DHT22;13410;52.114;5.718;2023-07-20T01:19:20;21.70;99.90
25504;DHT22;13410;52.114;5.718;2023-07-20T01:25:07;22.00;99.90
25504;DHT22;13410;52.114;5.718;2023-07-20T01:33:02;22.00;99.90
25504;DHT22;13410;52.114;5.718;2023-07-20T01:35:29;22.20;99.90
25504;DHT22;13410;52.114;5.718;2023-07-20T01:37:56;22.20;99.90
25504;DHT22;13410;52.114;5.718;2023-07-20T01:40:25;22.20;99.90
25504;DHT22;13410;52.114;5.718;2023-07-20T01:42:52;22.50;99.90
25504;DHT22;13410;52.114;5.718;2023-07-20T01:45:18;22.70;99.90
25504;DHT22;13410;52.114;5.718;2023-07-20T01:47:44;22.80;99.90
25504;DHT22;13410;52.114;5.718;2023-07-20T01:50:10;23.00;99.90
25504;DHT22;13410;52.114;5.718;2023-07-20T01:52:35;22.90;99.90
25504;DHT22;13410;52.114;5.718;2023-07-20T01:55:01;23.00;99.90
25504;DHT22;13410;52.114;5.718;2023-07-20T01:57:27;23.30;99.90
25504;DHT22;13410;52.114;5.718;2023-07-20T01:59:53;22.60;99.90
25504;DHT22;13410;52.114;5.718;2023-07-20T02:02:18;22.30;99.90
25504;DHT22;13410;52.114;5.718;2023-07-20T02:04:46;22.40;99.90
25504;DHT22;13410;52.114;5.718;2023-07-20T02:07:11;22.40;99.90
25504;DHT22;13410;52.114;5.718;2023-07-20T02:09:37;23.00;99.90
25504;DHT22;13410;52.114;5.718;2023-07-20T02:12:02;23.30;99.90
25504;DHT22;13410;52.114;5.718;2023-07-20T02:14:28;23.00;99.90
25504;DHT22;13410;52.114;5.718;2023-07-20T02:16:53;22.40;99.90
25504;DHT22;13410;52.114;5.718;2023-07-20T02:19:24;22.60;99.90
25504;DHT22;13410;52.114;5.718;2023-07-20T02:21:50;23.00;99.90
25504;DHT22;13410;52.114;5.718;2023-07-20T02:24:15;23.10;99.90
25504;DHT22;13410;52.114;5.718;2023-07-20T02:26:41;22.40;99.90
25504;DHT22;13410;52.114;5.718;2023-07-20T02:29:07;22.30;99.90
25504;DHT22;13410;52.114;5.718;2023-07-20T02:31:33;22.70;99.90
25504;DHT22;13410;52.114;5.718;2023-07-20T02:33:59;23.00;99.90
25504;DHT22;13410;52.114;5.718;2023-07-20T02:36:24;23.00;99.90
25504;DHT22;13410;52.114;5.718;2023-07-20T02:38:50;23.20;99.90
25504;DHT22;13410;52.114;5.718;2023-07-20T02:41:15;23.10;99.90
25504;DHT22;13410;52.114;5.718;2023-07-20T02:43:41;23.00;99.90
25504;DHT22;13410;52.114;5.718;2023-07-20T02:46:06;22.30;99.90
25504;DHT22;13410;52.114;5.718;2023-07-20T02:48:32;22.10;99.90
25504;DHT22;13410;52.114;5.718;2023-07-20T02:50:57;22.40;99.90
25504;DHT22;13410;52.114;5.718;2023-07-20T02:53:23;22.50;99.90
25504;DHT22;13410;52.114;5.718;2023-07-20T02:55:48;22.90;99.90
25504;DHT22;13410;52.114;5.718;2023-07-20T02:58:14;22.90;99.90
25504;DHT22;13410;52.114;5.718;2023-07-20T03:00:42;23.10;99.90
25504;DHT22;13410;52.114;5.718;2023-07-20T03:03:08;23.00;99.90
25504;DHT22;13410;52.114;5.718;2023-07-20T03:05:35;23.00;99.90
25504;DHT22;13410;52.114;5.718;2023-07-20T03:08:01;23.00;99.90
25504;DHT22;13410;52.114;5.718;2023-07-20T03:10:28;23.10;99.90
25504;DHT22;13410;52.114;5.718;2023-07-20T03:12:54;23.30;99.90
25504;DHT22;13410;52.114;5.718;2023-07-20T03:15:19;23.30;99.90
25504;DHT22;13410;52.114;5.718;2023-07-20T03:17:45;23.30;99.90
25504;DHT22;13410;52.114;5.718;2023-07-20T03:20:11;23.10;99.90
25504;DHT22;13410;52.114;5.718;2023-07-20T03:22:38;22.90;99.90
25504;DHT22;13410;52.114;5.718;2023-07-20T03:25:04;22.60;99.90
25504;DHT22;13410;52.114;5.718;2023-07-20T03:27:30;22.80;99.90
25504;DHT22;13410;52.114;5.718;2023-07-20T03:29:55;23.10;99.90
25504;DHT22;13410;52.114;5.718;2023-07-20T03:32:21;23.00;99.90
25504;DHT22;13410;52.114;5.718;2023-07-20T03:34:46;23.00;99.90
25504;DHT22;13410;52.114;5.718;2023-07-20T03:37:13;22.90;99.90
25504;DHT22;13410;52.114;5.718;2023-07-20T03:39:38;23.10;99.90
25504;DHT22;13410;52.114;5.718;2023-07-20T03:42:04;22.90;99.90
25504;DHT22;13410;52.114;5.718;2023-07-20T03:44:30;22.70;99.90
25504;DHT22;13410;52.114;5.718;2023-07-20T03:46:56;22.60;99.90
25504;DHT22;13410;52.114;5.718;2023-07-20T03:49:21;22.10;99.90
25504;DHT22;13410;52.114;5.718;2023-07-20T03:51:47;22.50;99.90
25504;DHT22;13410;52.114;5.718;2023-07-20T03:54:12;22.70;99.90
25504;DHT22;13410;52.114;5.718;2023-07-20T03:56:38;22.60;99.90
25504;DHT22;13410;52.114;5.718;2023-07-20T03:59:04;22.50;99.90
25504;DHT22;13410;52.114;5.718;2023-07-20T04:01:30;22.70;99.90
25504;DHT22;13410;52.114;5.718;2023-07-20T04:03:55;22.60;99.90
25504;DHT22;13410;52.114;5.718;2023-07-20T04:06:21;22.70;99.90
25504;DHT22;13410;52.114;5.718;2023-07-20T04:08:47;22.90;99.90
25504;DHT22;13410;52.114;5.718;2023-07-20T04:11:13;22.70;99.90
25504;DHT22;13410;52.114;5.718;2023-07-20T04:13:39;23.20;99.90
25504;DHT22;13410;52.114;5.718;2023-07-20T04:16:04;23.70;99.90
25504;DHT22;13410;52.114;5.718;2023-07-20T04:18:32;24.10;99.90
25504;DHT22;13410;52.114;5.718;2023-07-20T04:20:58;24.70;99.90
25504;DHT22;13410;52.114;5.718;2023-07-20T04:23:23;24.90;99.90
25504;DHT22;13410;52.114;5.718;2023-07-20T04:25:50;25.50;99.90
25504;DHT22;13410;52.114;5.718;2023-07-20T04:28:16;25.90;99.90
25504;DHT22;13410;52.114;5.718;2023-07-20T04:30:42;26.20;99.90
25504;DHT22;13410;52.114;5.718;2023-07-20T04:33:07;26.50;99.90
25504;DHT22;13410;52.114;5.718;2023-07-20T04:35:52;26.70;99.90
25504;DHT22;13410;52.114;5.718;2023-07-20T04:38:18;27.00;99.90
25504;DHT22;13410;52.114;5.718;2023-07-20T04:40:45;27.10;99.90
25504;DHT22;13410;52.114;5.718;2023-07-20T04:43:11;27.50;99.90
25504;DHT22;13410;52.114;5.718;2023-07-20T04:45:36;27.70;99.90
25504;DHT22;13410;52.114;5.718;2023-07-20T04:48:02;27.80;99.90
25504;DHT22;13410;52.114;5.718;2023-07-20T04:50:27;27.80;99.90
25504;DHT22;13410;52.114;5.718;2023-07-20T04:52:53;28.00;99.90
25504;DHT22;13410;52.114;5.718;2023-07-20T04:55:19;28.10;99.90
25504;DHT22;13410;52.114;5.718;2023-07-20T04:57:44;28.20;99.90
25504;DHT22;13410;52.114;5.718;2023-07-20T05:00:10;28.60;99.90
25504;DHT22;13410;52.114;5.718;2023-07-20T05:02:39;29.00;99.90
25504;DHT22;13410;52.114;5.718;2023-07-20T05:05:05;29.40;99.90
25504;DHT22;13410;52.114;5.718;2023-07-20T05:07:31;29.50;99.90
25504;DHT22;13410;52.114;5.718;2023-07-20T05:09:57;29.80;99.90
25504;DHT22;13410;52.114;5.718;2023-07-20T05:12:23;30.10;99.90
25504;DHT22;13410;52.114;5.718;2023-07-20T05:14:48;30.20;99.90
25504;DHT22;13410;52.114;5.718;2023-07-20T05:17:14;30.40;99.90
25504;DHT22;13410;52.114;5.718;2023-07-20T05:19:39;30.60;99.90
25504;DHT22;13410;52.114;5.718;2023-07-20T05:22:07;30.80;99.90
25504;DHT22;13410;52.114;5.718;2023-07-20T05:24:33;30.90;99.90
25504;DHT22;13410;52.114;5.718;2023-07-20T05:27:02;30.70;99.90
25504;DHT22;13410;52.114;5.718;2023-07-20T05:29:28;30.70;99.90
25504;DHT22;13410;52.114;5.718;2023-07-20T05:31:54;30.90;99.90
25504;DHT22;13410;52.114;5.718;2023-07-20T05:34:20;31.20;99.90
25504;DHT22;13410;52.114;5.718;2023-07-20T05:36:46;31.80;99.90
25504;DHT22;13410;52.114;5.718;2023-07-20T05:39:11;32.20;99.90
25504;DHT22;13410;52.114;5.718;2023-07-20T05:41:37;32.10;99.90
25504;DHT22;13410;52.114;5.718;2023-07-20T05:44:05;32.00;99.90
25504;DHT22;13410;52.114;5.718;2023-07-20T05:46:31;32.00;99.90
25504;DHT22;13410;52.114;5.718;2023-07-20T05:48:57;31.90;99.90
25504;DHT22;13410;52.114;5.718;2023-07-20T05:51:22;31.60;99.90
25504;DHT22;13410;52.114;5.718;2023-07-20T05:53:48;30.60;99.90
25504;DHT22;13410;52.114;5.718;2023-07-20T05:56:13;29.40;99.90
25504;DHT22;13410;52.114;5.718;2023-07-20T05:58:39;29.80;99.90
25504;DHT22;13410;52.114;5.718;2023-07-20T06:01:05;30.00;99.90
25504;DHT22;13410;52.114;5.718;2023-07-20T06:03:32;30.20;99.90
25504;DHT22;13410;52.114;5.718;2023-07-20T06:06:01;30.00;99.90
25504;DHT22;13410;52.114;5.718;2023-07-20T06:08:28;30.70;99.90
25504;DHT22;13410;52.114;5.718;2023-07-20T06:10:54;30.80;99.90
25504;DHT22;13410;52.114;5.718;2023-07-20T06:13:20;30.90;99.90
25504;DHT22;13410;52.114;5.718;2023-07-20T06:15:45;30.90;99.90
25504;DHT22;13410;52.114;5.718;2023-07-20T06:18:13;31.20;99.90
25504;DHT22;13410;52.114;5.718;2023-07-20T06:20:38;31.60;99.90
25504;DHT22;13410;52.114;5.718;2023-07-20T06:23:04;31.90;99.90
25504;DHT22;13410;52.114;5.718;2023-07-20T06:25:30;32.00;99.90
25504;DHT22;13410;52.114;5.718;2023-07-20T06:27:55;30.90;99.90
25504;DHT22;13410;52.114;5.718;2023-07-20T06:30:21;30.40;99.90
25504;DHT22;13410;52.114;5.718;2023-07-20T06:32:47;30.70;99.90
25504;DHT22;13410;52.114;5.718;2023-07-20T06:35:14;31.10;99.90
25504;DHT22;13410;52.114;5.718;2023-07-20T06:37:39;31.50;99.90
25504;DHT22;13410;52.114;5.718;2023-07-20T06:40:06;31.90;99.90
25504;DHT22;13410;52.114;5.718;2023-07-20T06:42:31;32.00;99.90
25504;DHT22;13410;52.114;5.718;2023-07-20T06:44:57;32.30;99.90
25504;DHT22;13410;52.114;5.718;2023-07-20T06:47:31;32.30;99.90
25504;DHT22;13410;52.114;5.718;2023-07-20T06:50:15;30.90;99.90
25504;DHT22;13410;52.114;5.718;2023-07-20T06:52:41;30.80;99.90
25504;DHT22;13410;52.114;5.718;2023-07-20T06:55:07;30.50;99.90
25504;DHT22;13410;52.114;5.718;2023-07-20T06:57:33;29.80;99.90
25504;DHT22;13410;52.114;5.718;2023-07-20T06:59:59;29.70;99.90
25504;DHT22;13410;52.114;5.718;2023-07-20T07:02:24;29.50;99.90
25504;DHT22;13410;52.114;5.718;2023-07-20T07:04:50;29.00;99.90
25504;DHT22;13410;52.114;5.718;2023-07-20T07:07:15;29.50;99.90
25504;DHT22;13410;52.114;5.718;2023-07-20T07:09:41;30.20;99.90
25504;DHT22;13410;52.114;5.718;2023-07-20T07:12:07;30.50;99.90
25504;DHT22;13410;52.114;5.718;2023-07-20T07:14:33;30.80;99.90
25504;DHT22;13410;52.114;5.718;2023-07-20T07:17:00;31.40;99.90
25504;DHT22;13410;52.114;5.718;2023-07-20T07:19:25;31.30;99.90
25504;DHT22;13410;52.114;5.718;2023-07-20T07:21:51;30.50;99.90
25504;DHT22;13410;52.114;5.718;2023-07-20T07:24:17;28.50;99.90
25504;DHT22;13410;52.114;5.718;2023-07-20T07:26:44;28.60;99.90
25504;DHT22;13410;52.114;5.718;2023-07-20T07:29:09;28.70;99.90
25504;DHT22;13410;52.114;5.718;2023-07-20T07:31:35;28.70;99.90
25504;DHT22;13410;52.114;5.718;2023-07-20T07:34:04;28.10;99.90
25504;DHT22;13410;52.114;5.718;2023-07-20T07:36:31;27.70;99.90
25504;DHT22;13410;52.114;5.718;2023-07-20T07:38:57;27.60;99.90
25504;DHT22;13410;52.114;5.718;2023-07-20T07:41:23;27.20;99.90
25504;DHT22;13410;52.114;5.718;2023-07-20T07:43:48;26.90;99.90
25504;DHT22;13410;52.114;5.718;2023-07-20T07:46:14;26.80;99.90
25504;DHT22;13410;52.114;5.718;2023-07-20T07:48:40;26.10;99.90
25504;DHT22;13410;52.114;5.718;2023-07-20T07:51:06;25.40;99.90
25504;DHT22;13410;52.114;5.718;2023-07-20T07:53:31;25.60;99.90
25504;DHT22;13410;52.114;5.718;2023-07-20T07:56:02;25.70;99.90
25504;DHT22;13410;52.114;5.718;2023-07-20T07:58:28;26.60;99.90
25504;DHT22;13410;52.114;5.718;2023-07-20T08:00:54;27.10;99.90
25504;DHT22;13410;52.114;5.718;2023-07-20T08:03:20;27.50;99.90
25504;DHT22;13410;52.114;5.718;2023-07-20T08:05:47;27.30;99.90
25504;DHT22;13410;52.114;5.718;2023-07-20T08:08:12;27.60;99.90
25504;DHT22;13410;52.114;5.718;2023-07-20T08:10:38;28.20;99.90
25504;DHT22;13410;52.114;5.718;2023-07-20T08:13:03;27.60;99.90
25504;DHT22;13410;52.114;5.718;2023-07-20T08:15:29;26.90;99.90
25504;DHT22;13410;52.114;5.718;2023-07-20T08:17:54;26.70;99.90
25504;DHT22;13410;52.114;5.718;2023-07-20T08:20:20;26.70;99.90
25504;DHT22;13410;52.114;5.718;2023-07-20T08:22:54;25.80;99.90
25504;DHT22;13410;52.114;5.718;2023-07-20T08:25:20;25.30;99.90
25504;DHT22;13410;52.114;5.718;2023-07-20T08:27:46;25.30;99.90
25504;DHT22;13410;52.114;5.718;2023-07-20T08:30:13;25.60;99.90
25504;DHT22;13410;52.114;5.718;2023-07-20T08:32:39;25.40;99.90
25504;DHT22;13410;52.114;5.718;2023-07-20T08:35:05;25.50;99.90
25504;DHT22;13410;52.114;5.718;2023-07-20T08:37:31;25.60;99.90
25504;DHT22;13410;52.114;5.718;2023-07-20T08:39:57;26.00;99.90
25504;DHT22;13410;52.114;5.718;2023-07-20T08:42:23;26.60;99.90
25504;DHT22;13410;52.114;5.718;2023-07-20T08:44:49;26.60;99.90
25504;DHT22;13410;52.114;5.718;2023-07-20T08:47:18;26.80;99.90
25504;DHT22;13410;52.114;5.718;2023-07-20T08:49:48;26.10;99.90
25504;DHT22;13410;52.114;5.718;2023-07-20T08:52:14;26.40;99.90
25504;DHT22;13410;52.114;5.718;2023-07-20T08:54:40;26.10;99.90
25504;DHT22;13410;52.114;5.718;2023-07-20T08:57:06;26.60;99.90
25504;DHT22;13410;52.114;5.718;2023-07-20T08:59:34;27.20;99.90
25504;DHT22;13410;52.114;5.718;2023-07-20T09:02:02;27.30;99.90
25504;DHT22;13410;52.114;5.718;2023-07-20T09:04:29;27.30;99.90
25504;DHT22;13410;52.114;5.718;2023-07-20T09:06:55;27.00;99.90
25504;DHT22;13410;52.114;5.718;2023-07-20T09:09:24;27.10;99.90
25504;DHT22;13410;52.114;5.718;2023-07-20T09:11:53;27.00;99.90
25504;DHT22;13410;52.114;5.718;2023-07-20T09:14:19;26.90;99.90
25504;DHT22;13410;52.114;5.718;2023-07-20T09:16:54;27.10;99.90
25504;DHT22;13410;52.114;5.718;2023-07-20T09:19:21;27.10;99.90
25504;DHT22;13410;52.114;5.718;2023-07-20T09:21:52;26.40;99.90
25504;DHT22;13410;52.114;5.718;2023-07-20T09:24:19;26.20;99.90
25504;DHT22;13410;52.114;5.718;2023-07-20T09:26:47;26.40;99.90
25504;DHT22;13410;52.114;5.718;2023-07-20T09:29:19;26.40;99.90
25504;DHT22;13410;52.114;5.718;2023-07-20T09:32:02;26.10;99.90
25504;DHT22;13410;52.114;5.718;2023-07-20T09:34:31;26.70;99.90
25504;DHT22;13410;52.114;5.718;2023-07-20T09:37:00;27.10;99.90
25504;DHT22;13410;52.114;5.718;2023-07-20T09:39:29;27.20;99.90
25504;DHT22;13410;52.114;5.718;2023-07-20T09:41:55;27.50;99.90
25504;DHT22;13410;52.114;5.718;2023-07-20T09:44:27;27.80;99.90
25504;DHT22;13410;52.114;5.718;2023-07-20T09:46:53;27.80;99.90
25504;DHT22;13410;52.114;5.718;2023-07-20T09:49:19;26.90;99.90
25504;DHT22;13410;52.114;5.718;2023-07-20T09:51:46;26.10;99.90
25504;DHT22;13410;52.114;5.718;2023-07-20T09:54:13;26.40;99.90
25504;DHT22;13410;52.114;5.718;2023-07-20T09:56:41;26.90;99.90
25504;DHT22;13410;52.114;5.718;2023-07-20T09:59:07;27.30;99.90
25504;DHT22;13410;52.114;5.718;2023-07-20T10:01:34;27.50;99.90
25504;DHT22;13410;52.114;5.718;2023-07-20T10:04:03;27.70;99.90
25504;DHT22;13410;52.114;5.718;2023-07-20T10:06:30;27.70;99.90
25504;DHT22;13410;52.114;5.718;2023-07-20T10:09:01;28.10;99.90
25504;DHT22;13410;52.114;5.718;2023-07-20T10:11:31;28.50;99.90
25504;DHT22;13410;52.114;5.718;2023-07-20T10:14:03;28.50;99.90
25504;DHT22;13410;52.114;5.718;2023-07-20T10:16:34;28.60;99.90
25504;DHT22;13410;52.114;5.718;2023-07-20T10:19:05;28.40;99.90
25504;DHT22;13410;52.114;5.718;2023-07-20T10:21:35;28.10;99.90
25504;DHT22;13410;52.114;5.718;2023-07-20T10:24:03;28.50;99.90
25504;DHT22;13410;52.114;5.718;2023-07-20T10:26:29;28.60;99.90
25504;DHT22;13410;52.114;5.718;2023-07-20T10:28:56;28.20;99.90
25504;DHT22;13410;52.114;5.718;2023-07-20T10:31:23;28.20;99.90
25504;DHT22;13410;52.114;5.718;2023-07-20T10:33:49;28.50;99.90
25504;DHT22;13410;52.114;5.718;2023-07-20T10:36:16;28.40;99.90
25504;DHT22;13410;52.114;5.718;2023-07-20T10:41:27;27.00;99.90
25504;DHT22;13410;52.114;5.718;2023-07-20T10:44:06;26.40;99.90
25504;DHT22;13410;52.114;5.718;2023-07-20T10:49:05;26.80;99.90
25504;DHT22;13410;52.114;5.718;2023-07-20T10:51:47;26.40;99.90
25504;DHT22;13410;52.114;5.718;2023-07-20T10:56:42;25.30;99.90
25504;DHT22;13410;52.114;5.718;2023-07-20T10:59:38;25.20;99.90
25504;DHT22;13410;52.114;5.718;2023-07-20T11:02:08;24.70;99.90
25504;DHT22;13410;52.114;5.718;2023-07-20T11:04:43;24.50;99.90
25504;DHT22;13410;52.114;5.718;2023-07-20T11:07:09;24.50;99.90
25504;DHT22;13410;52.114;5.718;2023-07-20T11:09:36;24.60;99.90
25504;DHT22;13410;52.114;5.718;2023-07-20T11:14:52;23.60;99.90
25504;DHT22;13410;52.114;5.718;2023-07-20T11:17:20;24.00;99.90
25504;DHT22;13410;52.114;5.718;2023-07-20T11:19:58;24.40;99.90
25504;DHT22;13410;52.114;5.718;2023-07-20T11:22:26;25.00;99.90
25504;DHT22;13410;52.114;5.718;2023-07-20T11:24:55;25.30;99.90
25504;DHT22;13410;52.114;5.718;2023-07-20T11:27:21;25.60;99.90
25504;DHT22;13410;52.114;5.718;2023-07-20T11:29:48;25.90;99.90
25504;DHT22;13410;52.114;5.718;2023-07-20T11:32:23;26.10;99.90
25504;DHT22;13410;52.114;5.718;2023-07-20T11:34:49;26.50;99.90
25504;DHT22;13410;52.114;5.718;2023-07-20T11:37:15;26.50;99.90
25504;DHT22;13410;52.114;5.718;2023-07-20T11:39:45;26.60;99.90
25504;DHT22;13410;52.114;5.718;2023-07-20T11:42:11;26.90;99.90
25504;DHT22;13410;52.114;5.718;2023-07-20T11:44:41;26.50;99.90
25504;DHT22;13410;52.114;5.718;2023-07-20T11:47:08;26.30;99.90
25504;DHT22;13410;52.114;5.718;2023-07-20T11:49:38;26.30;99.90
25504;DHT22;13410;52.114;5.718;2023-07-20T11:52:15;26.50;99.90
25504;DHT22;13410;52.114;5.718;2023-07-20T11:54:42;26.10;99.90
25504;DHT22;13410;52.114;5.718;2023-07-20T11:57:18;26.00;99.90
25504;DHT22;13410;52.114;5.718;2023-07-20T11:59:57;26.20;99.90
25504;DHT22;13410;52.114;5.718;2023-07-20T12:02:25;26.60;99.90
25504;DHT22;13410;52.114;5.718;2023-07-20T12:04:52;26.40;99.90
25504;DHT22;13410;52.114;5.718;2023-07-20T12:07:18;26.10;99.90
25504;DHT22;13410;52.114;5.718;2023-07-20T12:09:44;26.40;99.90
25504;DHT22;13410;52.114;5.718;2023-07-20T12:12:11;26.80;99.90
25504;DHT22;13410;52.114;5.718;2023-07-20T12:14:39;27.00;99.90
25504;DHT22;13410;52.114;5.718;2023-07-20T12:17:10;27.60;99.90
25504;DHT22;13410;52.114;5.718;2023-07-20T12:19:38;27.80;99.90
25504;DHT22;13410;52.114;5.718;2023-07-20T12:22:06;27.90;99.90
25504;DHT22;13410;52.114;5.718;2023-07-20T12:24:31;28.30;99.90
25504;DHT22;13410;52.114;5.718;2023-07-20T12:26:58;28.70;99.90
25504;DHT22;13410;52.114;5.718;2023-07-20T12:29:23;29.00;99.90
25504;DHT22;13410;52.114;5.718;2023-07-20T12:31:49;29.20;99.90
25504;DHT22;13410;52.114;5.718;2023-07-20T12:34:15;29.10;99.90
25504;DHT22;13410;52.114;5.718;2023-07-20T12:36:40;28.90;99.90
25504;DHT22;13410;52.114;5.718;2023-07-20T12:39:06;29.20;99.90
25504;DHT22;13410;52.114;5.718;2023-07-20T12:41:32;29.60;99.90
25504;DHT22;13410;52.114;5.718;2023-07-20T12:43:57;29.90;99.90
25504;DHT22;13410;52.114;5.718;2023-07-20T12:46:23;30.10;99.90
25504;DHT22;13410;52.114;5.718;2023-07-20T12:48:49;29.20;99.90
25504;DHT22;13410;52.114;5.718;2023-07-20T12:51:15;28.40;99.90
25504;DHT22;13410;52.114;5.718;2023-07-20T12:53:40;28.40;99.90
25504;DHT22;13410;52.114;5.718;2023-07-20T12:56:06;27.90;99.90
25504;DHT22;13410;52.114;5.718;2023-07-20T12:58:32;27.90;99.90
25504;DHT22;13410;52.114;5.718;2023-07-20T13:00:57;27.70;99.90
25504;DHT22;13410;52.114;5.718;2023-07-20T13:03:23;28.20;99.90
25504;DHT22;13410;52.114;5.718;2023-07-20T13:05:49;28.70;99.90
25504;DHT22;13410;52.114;5.718;2023-07-20T13:08:15;28.90;99.90
25504;DHT22;13410;52.114;5.718;2023-07-20T13:10:41;29.10;99.90
25504;DHT22;13410;52.114;5.718;2023-07-20T13:13:07;28.70;99.90
25504;DHT22;13410;52.114;5.718;2023-07-20T13:15:41;28.60;99.90
25504;DHT22;13410;52.114;5.718;2023-07-20T13:18:07;28.90;99.90
25504;DHT22;13410;52.114;5.718;2023-07-20T13:20:32;29.30;99.90
25504;DHT22;13410;52.114;5.718;2023-07-20T13:22:58;29.10;99.90
25504;DHT22;13410;52.114;5.718;2023-07-20T13:25:24;28.30;99.90
25504;DHT22;13410;52.114;5.718;2023-07-20T13:27:50;28.10;99.90
25504;DHT22;13410;52.114;5.718;2023-07-20T13:30:15;28.10;99.90
25504;DHT22;13410;52.114;5.718;2023-07-20T13:32:44;28.40;99.90
25504;DHT22;13410;52.114;5.718;2023-07-20T13:35:13;28.00;99.90
25504;DHT22;13410;52.114;5.718;2023-07-20T13:37:39;27.60;99.90
25504;DHT22;13410;52.114;5.718;2023-07-20T13:40:05;27.50;99.90
25504;DHT22;13410;52.114;5.718;2023-07-20T13:42:31;27.70;99.90
25504;DHT22;13410;52.114;5.718;2023-07-20T13:44:57;27.70;99.90
25504;DHT22;13410;52.114;5.718;2023-07-20T13:47:23;27.90;99.90
25504;DHT22;13410;52.114;5.718;2023-07-20T13:49:48;27.80;99.90
25504;DHT22;13410;52.114;5.718;2023-07-20T13:52:14;27.70;99.90
25504;DHT22;13410;52.114;5.718;2023-07-20T13:54:40;28.10;99.90
25504;DHT22;13410;52.114;5.718;2023-07-20T13:57:05;28.40;99.90
25504;DHT22;13410;52.114;5.718;2023-07-20T13:59:31;28.80;99.90
25504;DHT22;13410;52.114;5.718;2023-07-20T14:01:57;28.90;99.90
25504;DHT22;13410;52.114;5.718;2023-07-20T14:04:22;28.70;99.90
25504;DHT22;13410;52.114;5.718;2023-07-20T14:06:48;28.90;99.90
25504;DHT22;13410;52.114;5.718;2023-07-20T14:09:13;29.30;99.90
25504;DHT22;13410;52.114;5.718;2023-07-20T14:11:39;29.50;99.90
25504;DHT22;13410;52.114;5.718;2023-07-20T14:14:04;29.40;99.90
25504;DHT22;13410;52.114;5.718;2023-07-20T14:16:30;29.60;99.90
25504;DHT22;13410;52.114;5.718;2023-07-20T14:18:57;29.50;99.90
25504;DHT22;13410;52.114;5.718;2023-07-20T14:21:23;29.30;99.90
25504;DHT22;13410;52.114;5.718;2023-07-20T14:23:51;28.50;99.90
25504;DHT22;13410;52.114;5.718;2023-07-20T14:26:17;28.50;99.90
25504;DHT22;13410;52.114;5.718;2023-07-20T14:28:44;28.40;99.90
25504;DHT22;13410;52.114;5.718;2023-07-20T14:31:10;28.70;99.90
25504;DHT22;13410;52.114;5.718;2023-07-20T14:33:35;28.50;99.90
25504;DHT22;13410;52.114;5.718;2023-07-20T14:36:02;28.30;99.90
25504;DHT22;13410;52.114;5.718;2023-07-20T14:38:28;28.40;99.90
25504;DHT22;13410;52.114;5.718;2023-07-20T14:40:54;28.80;99.90
25504;DHT22;13410;52.114;5.718;2023-07-20T14:43:20;29.20;99.90
25504;DHT22;13410;52.114;5.718;2023-07-20T14:45:45;29.50;99.90
25504;DHT22;13410;52.114;5.718;2023-07-20T14:48:11;29.60;99.90
25504;DHT22;13410;52.114;5.718;2023-07-20T14:50:36;29.40;99.90
25504;DHT22;13410;52.114;5.718;2023-07-20T14:53:02;29.40;99.90
25504;DHT22;13410;52.114;5.718;2023-07-20T14:55:28;29.00;99.90
25504;DHT22;13410;52.114;5.718;2023-07-20T14:57:54;28.90;99.90
25504;DHT22;13410;52.114;5.718;2023-07-20T15:00:20;28.60;99.90
25504;DHT22;13410;52.114;5.718;2023-07-20T15:02:45;28.50;99.90
25504;DHT22;13410;52.114;5.718;2023-07-20T15:05:11;28.70;99.90
25504;DHT22;13410;52.114;5.718;2023-07-20T15:07:37;28.90;99.90
25504;DHT22;13410;52.114;5.718;2023-07-20T15:10:04;29.00;99.90
25504;DHT22;13410;52.114;5.718;2023-07-20T15:12:30;28.70;99.90
25504;DHT22;13410;52.114;5.718;2023-07-20T15:15:10;28.00;99.90
25504;DHT22;13410;52.114;5.718;2023-07-20T15:17:37;28.10;99.90
25504;DHT22;13410;52.114;5.718;2023-07-20T15:20:04;28.20;99.90
25504;DHT22;13410;52.114;5.718;2023-07-20T15:22:31;28.40;99.90
25504;DHT22;13410;52.114;5.718;2023-07-20T15:24:57;28.30;99.90
25504;DHT22;13410;52.114;5.718;2023-07-20T15:27:22;27.80;99.90
25504;DHT22;13410;52.114;5.718;2023-07-20T15:29:49;27.20;99.90
25504;DHT22;13410;52.114;5.718;2023-07-20T15:32:15;26.50;99.90
25504;DHT22;13410;52.114;5.718;2023-07-20T15:34:42;26.30;99.90
25504;DHT22;13410;52.114;5.718;2023-07-20T15:37:08;26.20;99.90
25504;DHT22;13410;52.114;5.718;2023-07-20T15:39:35;25.60;99.90
25504;DHT22;13410;52.114;5.718;2023-07-20T15:42:01;25.60;99.90
25504;DHT22;13410;52.114;5.718;2023-07-20T15:44:26;25.90;99.90
25504;DHT22;13410;52.114;5.718;2023-07-20T15:46:52;25.80;99.90